Terminal Aerodrome Forecast
Issued by NWS Des Moines, IA

Home | Current Version | Previous Version | Text Only | Print | Product List | Glossary On
Versions: 1 2 3 4 5 6 7 8 9 10 11 12 13 14 15 16
000
FTUS43 KDMX 261857 AAA
TAFDSM
TAF AMD
KDSM 261857Z 2619/2718 32015G22KT P6SM OVC020
     FM270200 33011KT P6SM OVC018
     FM271400 28012KT P6SM SCT012 BKN035=

USA.gov is the U.S. government's official web portal to all federal, state and local government web resources and services.